Time;durP1;ratioP1;P1;durP2;ratioP2;P2;SDS_P1;SDS_P2;PMS_P1;PMS_P2;Temp;Humidity;BMP_temperature;BMP_pressure;BME280_temperature;BME280_humidity;BME280_pressure;Samples;Min_cycle;Max_cycle;Signal;HPM_P1;HPM_P2
2022/05/22 00:01:04;;;;;;;6.32;3.88;;;;;;;13.10;97.40;99573.75;5032485;28;20034;-77
2022/05/22 00:03:29;;;;;;;5.90;3.67;;;;;;;13.07;98.22;99575.75;5032651;28;20025;-77
2022/05/22 00:05:54;;;;;;;4.63;3.35;;;;;;;12.99;98.35;99591.84;5032528;28;20026;-77
2022/05/22 00:08:20;;;;;;;7.47;3.97;;;;;;;13.02;98.78;99599.53;5032629;28;20028;-77
2022/05/22 00:10:46;;;;;;;5.72;3.88;;;;;;;12.94;98.75;99592.13;5032283;28;20394;-77
2022/05/22 00:13:11;;;;;;;4.88;3.58;;;;;;;12.90;98.70;99589.78;5031755;28;20044;-77
2022/05/22 00:16:36;;;;;;;6.22;3.90;;;;;;;12.91;99.00;99596.69;5031964;28;20032;-77
2022/05/22 00:18:22;;;;;;;4.85;3.63;;;;;;;12.84;100.00;99580.50;5032080;28;20045;-77
2022/05/22 00:20:48;;;;;;;8.73;4.28;;;;;;;12.83;100.00;99586.66;5032083;28;20028;-78
2022/05/22 00:23:13;;;;;;;6.78;4.10;;;;;;;12.78;100.00;99580.84;5032193;28;20025;-77
2022/05/22 00:25:38;;;;;;;5.85;4.05;;;;;;;12.79;100.00;99577.31;5032006;28;20024;-77
2022/05/22 00:28:04;;;;;;;5.43;3.70;;;;;;;12.73;100.00;99575.88;5032011;28;20083;-77
2022/05/22 00:30:29;;;;;;;4.82;3.75;;;;;;;12.61;100.00;99566.13;5032011;28;20467;-77
2022/05/22 00:32:54;;;;;;;7.00;3.63;;;;;;;12.65;100.00;99585.94;5031975;28;20394;-77
2022/05/22 00:35:20;;;;;;;6.00;4.10;;;;;;;12.58;100.00;99573.28;5032136;28;20535;-77
2022/05/22 00:37:45;;;;;;;4.55;3.47;;;;;;;12.55;100.00;99566.47;5031857;28;20037;-77
2022/05/22 00:40:11;;;;;;;5.63;3.95;;;;;;;12.60;100.00;99580.13;5032248;28;20108;-77
2022/05/22 00:42:36;;;;;;;7.25;4.43;;;;;;;12.57;100.00;99585.53;5032134;28;20196;-77
2022/05/22 00:45:02;;;;;;;5.18;3.72;;;;;;;12.57;100.00;99574.22;5031397;28;20081;-77
2022/05/22 00:47:27;;;;;;;6.60;4.00;;;;;;;12.46;100.00;99567.81;5032045;28;20028;-77
2022/05/22 00:49:59;;;;;;;6.47;4.28;;;;;;;12.54;100.00;99571.78;5031606;28;20057;-77
2022/05/22 00:52:42;;;;;;;6.28;4.15;;;;;;;12.49;100.00;99577.25;5031865;28;20032;-77
2022/05/22 00:55:13;;;;;;;6.45;3.60;;;;;;;12.48;100.00;99572.97;5031781;28;20068;-77
2022/05/22 00:57:45;;;;;;;6.07;4.10;;;;;;;12.41;100.00;99562.00;5032206;28;20053;-77
2022/05/22 01:00:17;;;;;;;4.68;3.97;;;;;;;12.44;100.00;99574.06;5031858;28;20040;-77
2022/05/22 01:05:27;;;;;;;9.48;4.80;;;;;;;12.35;100.00;99571.97;5031646;28;20125;-77
2022/05/22 01:07:56;;;;;;;6.95;4.57;;;;;;;12.26;100.00;99560.22;5031302;28;20104;-77
2022/05/22 01:10:21;;;;;;;6.63;4.43;;;;;;;12.23;100.00;99561.25;5031728;28;20029;-77
2022/05/22 01:12:48;;;;;;;6.93;4.85;;;;;;;12.24;100.00;99569.94;5031492;28;20497;-77
2022/05/22 01:15:15;;;;;;;8.65;4.88;;;;;;;12.22;100.00;99575.25;5031611;28;20099;-77
2022/05/22 01:17:44;;;;;;;6.00;4.35;;;;;;;12.20;100.00;99579.69;5031702;28;20022;-78
2022/05/22 01:20:11;;;;;;;7.38;4.22;;;;;;;12.15;100.00;99573.06;5031574;28;20029;-77
2022/05/22 01:22:36;;;;;;;7.35;4.13;;;;;;;12.15;100.00;99578.28;5031919;28;20026;-78
2022/05/22 01:25:03;;;;;;;6.13;4.55;;;;;;;12.11;100.00;99574.13;5014734;28;20034;-77
2022/05/22 01:27:28;;;;;;;6.07;3.78;;;;;;;12.04;100.00;99572.78;5035598;28;20414;-77
2022/05/22 01:30:05;;;;;;;9.25;4.60;;;;;;;12.00;100.00;99569.47;5035229;28;20030;-77
2022/05/22 01:32:35;;;;;;;7.32;4.38;;;;;;;11.99;100.00;99567.81;5035397;28;20632;-77
2022/05/22 01:35:00;;;;;;;6.38;3.97;;;;;;;11.94;100.00;99555.00;5034974;28;20034;-77
2022/05/22 01:37:26;;;;;;;8.95;4.30;;;;;;;11.97;100.00;99560.06;5035116;28;20075;-77
2022/05/22 01:39:52;;;;;;;7.45;4.60;;;;;;;11.83;100.00;99539.06;5035079;28;20034;-77
2022/05/22 01:42:17;;;;;;;9.80;4.32;;;;;;;11.91;100.00;99560.38;5035205;28;20072;-77
2022/05/22 01:44:43;;;;;;;7.43;4.43;;;;;;;11.91;100.00;99568.22;5034712;28;20061;-77
2022/05/22 01:47:08;;;;;;;6.30;4.10;;;;;;;11.88;100.00;99562.31;5035169;28;20470;-78
2022/05/22 01:49:33;;;;;;;8.52;4.50;;;;;;;11.81;100.00;99558.31;5034874;28;20029;-77
2022/05/22 01:51:59;;;;;;;7.25;4.15;;;;;;;11.73;100.00;99556.13;5017179;28;20577;-77
2022/05/22 01:54:24;;;;;;;5.60;4.28;;;;;;;11.76;100.00;99561.19;5035108;28;20546;-77
2022/05/22 01:56:50;;;;;;;5.90;4.15;;;;;;;11.73;100.00;99564.78;5034688;28;20040;-77
2022/05/22 01:59:16;;;;;;;5.00;3.90;;;;;;;11.69;100.00;99560.66;5034851;28;20057;-77
2022/05/22 02:01:42;;;;;;;7.63;4.22;;;;;;;11.56;100.00;99537.91;5034812;28;20097;-77
2022/05/22 02:04:07;;;;;;;7.20;4.80;;;;;;;11.63;100.00;99550.56;5034409;28;20056;-77
2022/05/22 02:06:33;;;;;;;4.78;3.75;;;;;;;11.62;100.00;99546.22;5034648;28;20056;-77
2022/05/22 02:08:58;;;;;;;5.72;4.13;;;;;;;11.60;100.00;99549.88;5034621;28;20033;-78
2022/05/22 02:11:24;;;;;;;5.50;3.83;;;;;;;11.53;100.00;99538.06;5016961;28;20029;-78
2022/05/22 02:13:49;;;;;;;5.15;3.83;;;;;;;11.47;100.00;99534.00;5034308;28;20116;-78
2022/05/22 02:16:16;;;;;;;7.38;3.80;;;;;;;11.53;100.00;99551.94;5034552;28;20474;-77
2022/05/22 02:18:42;;;;;;;9.77;3.95;;;;;;;11.51;100.00;99553.78;5034408;28;20033;-77
2022/05/22 02:21:08;;;;;;;7.80;4.05;;;;;;;11.52;100.00;99560.69;5034412;28;20017;-77
2022/05/22 02:23:35;;;;;;;5.20;3.47;;;;;;;11.39;100.00;99544.00;5034568;28;20079;-77
2022/05/22 02:26:01;;;;;;;5.10;3.50;;;;;;;11.38;100.00;99550.13;5034318;28;20029;-77
2022/05/22 02:28:27;;;;;;;7.35;3.75;;;;;;;11.38;100.00;99550.97;5034343;28;20029;-77
2022/05/22 02:30:59;;;;;;;7.30;3.53;;;;;;;11.40;100.00;99561.31;5034046;28;20032;-77
2022/05/22 02:33:24;;;;;;;5.43;3.83;;;;;;;11.38;100.00;99558.81;5034450;28;20029;-77
2022/05/22 02:35:51;;;;;;;6.85;3.90;;;;;;;11.36;100.00;99552.81;5033970;28;20032;-77
2022/05/22 02:38:17;;;;;;;4.57;3.33;;;;;;;11.27;100.00;99550.69;5033582;28;20030;-77
2022/05/22 02:40:42;;;;;;;6.88;3.92;;;;;;;11.29;100.00;99545.38;5034436;28;20083;-77
2022/05/22 02:43:08;;;;;;;7.32;3.70;;;;;;;11.29;100.00;99545.38;5033714;28;20438;-77
2022/05/22 02:45:37;;;;;;;6.10;3.30;;;;;;;11.32;100.00;99546.06;5033679;28;20493;-77
2022/05/22 02:48:04;;;;;;;6.47;3.38;;;;;;;11.33;100.00;99549.50;5033961;28;20034;-77
2022/05/22 02:50:31;;;;;;;5.13;3.80;;;;;;;11.34;100.00;99552.06;5034259;28;20078;-77
2022/05/22 02:52:57;;;;;;;4.60;3.55;;;;;;;11.33;100.00;99544.28;5033764;28;20429;-77
2022/05/22 02:55:22;;;;;;;6.40;3.55;;;;;;;11.39;100.00;99547.44;5033856;28;20025;-77
2022/05/22 02:57:48;;;;;;;6.28;3.20;;;;;;;11.37;100.00;99549.28;5033581;28;20387;-77
2022/05/22 03:00:18;;;;;;;4.53;3.03;;;;;;;11.39;100.00;99544.84;5033789;28;20068;-77
2022/05/22 03:02:44;;;;;;;5.93;3.65;;;;;;;11.39;100.00;99534.41;5033823;28;20124;-78
2022/05/22 03:05:10;;;;;;;3.65;3.20;;;;;;;11.42;100.00;99549.06;5033535;28;20047;-77
2022/05/22 03:07:38;;;;;;;6.22;3.30;;;;;;;11.48;100.00;99551.34;5033578;28;20040;-77
2022/05/22 03:10:07;;;;;;;5.88;3.40;;;;;;;11.46;100.00;99538.38;5033330;28;20080;-77
2022/05/22 03:12:33;;;;;;;7.10;3.15;;;;;;;11.47;100.00;99544.44;5033447;28;20474;-77
2022/05/22 03:14:59;;;;;;;5.50;3.30;;;;;;;11.53;100.00;99548.50;5033183;28;20386;-77
2022/05/22 03:17:26;;;;;;;5.57;3.40;;;;;;;11.56;100.00;99548.34;5033549;28;20025;-77
2022/05/22 03:19:52;;;;;;;8.57;4.28;;;;;;;11.52;100.00;99545.03;5033248;28;20036;-77
2022/05/22 03:22:18;;;;;;;7.65;3.83;;;;;;;11.62;100.00;99553.22;5033394;28;20037;-77
2022/05/22 03:24:43;;;;;;;6.32;4.05;;;;;;;11.61;100.00;99547.16;5033294;28;20029;-77
2022/05/22 03:27:11;;;;;;;6.63;3.90;;;;;;;11.64;100.00;99547.00;5033253;28;20405;-77
2022/05/22 03:29:38;;;;;;;4.15;3.67;;;;;;;11.71;100.00;99550.13;5033377;28;20144;-77
2022/05/22 03:32:04;;;;;;;4.97;3.97;;;;;;;11.72;100.00;99554.44;5032997;28;20052;-77
2022/05/22 03:34:30;;;;;;;7.38;4.25;;;;;;;11.77;100.00;99538.53;5033240;28;20099;-77
2022/05/22 03:36:56;;;;;;;7.65;4.13;;;;;;;11.77;100.00;99530.72;5032827;28;20025;-77
2022/05/22 03:39:21;;;;;;;6.85;3.95;;;;;;;11.90;100.00;99542.22;5033003;28;20113;-77
2022/05/22 03:41:47;;;;;;;4.00;3.53;;;;;;;11.95;100.00;99548.84;5032922;28;20022;-77
2022/05/22 03:44:13;;;;;;;7.10;4.20;;;;;;;11.98;100.00;99548.69;5032931;28;20082;-77
2022/05/22 03:46:38;;;;;;;7.38;4.18;;;;;;;11.96;100.00;99542.69;5032974;28;20128;-77
2022/05/22 03:49:04;;;;;;;5.72;4.05;;;;;;;12.02;100.00;99541.53;5032661;28;20048;-77
2022/05/22 03:51:29;;;;;;;8.57;4.10;;;;;;;12.12;100.00;99544.50;5032915;28;20108;-77
2022/05/22 03:53:55;;;;;;;6.60;3.72;;;;;;;12.15;100.00;99536.50;4990597;28;20030;-77
2022/05/22 03:56:21;;;;;;;7.22;3.88;;;;;;;12.28;100.00;99553.16;4990908;28;20502;-77
2022/05/22 03:58:47;;;;;;;7.88;3.60;;;;;;;12.39;100.00;99553.44;4990758;28;20042;-77
2022/05/22 04:01:13;;;;;;;5.70;3.33;;;;;;;12.46;100.00;99546.06;4990617;28;20043;-77
2022/05/22 04:03:39;;;;;;;9.68;3.63;;;;;;;12.63;100.00;99542.50;4990835;28;20049;-77
2022/05/22 04:06:07;;;;;;;5.18;3.25;;;;;;;12.95;99.24;99551.13;4990549;28;20092;-77
2022/05/22 04:08:34;;;;;;;4.00;2.80;;;;;;;13.48;96.74;99534.06;4990686;28;20633;-77
2022/05/22 04:11:25;;;;;;;4.07;2.83;;;;;;;13.89;92.21;99544.63;4990448;28;20073;-77
2022/05/22 04:13:51;;;;;;;6.32;2.88;;;;;;;14.19;90.10;99548.88;4913758;29;20036;-77
2022/05/22 04:16:16;;;;;;;4.68;2.97;;;;;;;15.08;86.47;99541.34;4913514;29;20601;-77
2022/05/22 04:18:41;;;;;;;6.18;3.30;;;;;;;15.53;82.30;99538.34;4913688;29;20137;-77
2022/05/22 04:21:08;;;;;;;5.50;2.80;;;;;;;15.67;80.88;99536.50;4913536;29;20032;-77
2022/05/22 04:26:18;;;;;;;6.07;3.10;;;;;;;15.48;80.39;99539.50;4952173;29;20090;-77
2022/05/22 04:28:44;;;;;;;4.80;2.45;;;;;;;15.67;80.11;99544.38;4951677;29;20034;-77
2022/05/22 04:31:10;;;;;;;3.92;2.67;;;;;;;16.44;77.67;99552.91;4951440;29;20046;-77
2022/05/22 04:33:35;;;;;;;4.93;2.53;;;;;;;17.91;71.22;99538.41;4951519;29;20031;-77
2022/05/22 04:36:01;;;;;;;4.38;2.40;;;;;;;19.75;63.11;99529.34;4951410;29;20035;-77
2022/05/22 04:38:26;;;;;;;4.75;2.42;;;;;;;21.22;57.47;99542.63;4951495;29;20513;-77
2022/05/22 04:41:02;;;;;;;3.85;2.75;;;;;;;21.88;53.95;99534.66;4951534;29;20035;-77
2022/05/22 04:43:30;;;;;;;3.95;2.50;;;;;;;21.28;54.13;99535.94;4951551;29;20126;-77
2022/05/22 04:45:56;;;;;;;8.30;3.10;;;;;;;20.52;56.32;99538.47;4951057;28;20053;-77
2022/05/22 04:48:23;;;;;;;4.63;2.70;;;;;;;20.05;58.45;99539.03;4951422;29;20035;-77
2022/05/22 04:50:50;;;;;;;4.63;2.55;;;;;;;19.68;59.66;99525.56;4986043;28;20077;-77
2022/05/22 04:53:18;;;;;;;4.00;2.38;;;;;;;19.74;59.84;99534.78;5012051;28;20076;-77
2022/05/22 04:55:44;;;;;;;4.72;2.40;;;;;;;20.28;58.04;99534.38;5012115;28;20113;-77
2022/05/22 04:58:09;;;;;;;7.90;2.55;;;;;;;21.97;52.83;99534.75;5012227;28;20450;-77
2022/05/22 05:00:35;;;;;;;5.47;2.70;;;;;;;23.89;47.81;99539.47;5016494;28;20538;-77
2022/05/22 05:03:00;;;;;;;4.53;2.47;;;;;;;24.85;43.70;99536.38;5018461;28;20200;-77
2022/05/22 05:05:27;;;;;;;12.35;3.35;;;;;;;24.48;43.42;99551.97;5018638;28;20490;-77
2022/05/22 05:07:53;;;;;;;5.10;2.60;;;;;;;23.23;45.79;99545.34;5018949;28;20026;-77
2022/05/22 05:10:19;;;;;;;5.72;2.10;;;;;;;22.17;47.59;99542.50;5018437;28;20497;-77
2022/05/22 05:12:45;;;;;;;6.03;2.85;;;;;;;21.59;49.31;99532.13;5018439;28;20026;-77
2022/05/22 05:15:14;;;;;;;5.47;2.42;;;;;;;21.18;51.03;99546.56;5018130;28;20459;-77
2022/05/22 05:17:41;;;;;;;4.25;2.70;;;;;;;20.81;51.70;99541.97;5018368;28;20506;-77
2022/05/22 05:20:07;;;;;;;5.55;2.47;;;;;;;20.51;52.16;99547.38;5018417;28;20048;-77
2022/05/22 05:22:33;;;;;;;3.60;2.17;;;;;;;20.31;52.94;99544.69;5018827;28;20057;-77
2022/05/22 05:24:59;;;;;;;3.60;2.10;;;;;;;20.02;52.99;99544.63;5018245;28;20061;-77
2022/05/22 05:27:24;;;;;;;3.95;2.10;;;;;;;19.59;53.69;99540.38;5018420;28;20030;-77
2022/05/22 05:29:50;;;;;;;5.07;2.13;;;;;;;19.41;54.66;99555.97;5018691;28;20537;-77
2022/05/22 05:32:19;;;;;;;7.15;2.38;;;;;;;19.25;55.24;99549.47;5018017;28;20022;-77
2022/05/22 05:34:44;;;;;;;4.60;1.80;;;;;;;19.14;55.19;99548.59;5018162;28;20466;-77
2022/05/22 05:37:10;;;;;;;5.45;2.15;;;;;;;19.01;56.23;99529.47;5018203;28;20080;-77
2022/05/22 05:39:35;;;;;;;4.68;2.35;;;;;;;19.59;56.33;99543.03;5018212;28;20030;-77
2022/05/22 05:42:01;;;;;;;2.95;1.60;;;;;;;21.24;51.63;99542.47;5018326;28;20033;-77
2022/05/22 05:44:26;;;;;;;3.33;1.70;;;;;;;23.41;45.60;99532.00;5019419;28;20475;-77
2022/05/22 05:46:52;;;;;;;4.90;1.90;;;;;;;23.90;43.64;99535.78;5037802;28;20064;-76
2022/05/22 05:49:17;;;;;;;6.28;2.42;;;;;;;22.96;45.91;99533.00;5037881;28;20036;-76
2022/05/22 05:51:43;;;;;;;4.72;2.20;;;;;;;22.10;47.56;99548.50;5037929;28;20021;-76
2022/05/22 05:54:08;;;;;;;4.53;2.05;;;;;;;21.57;48.68;99543.84;5037638;28;20025;-76
2022/05/22 05:56:38;;;;;;;5.95;2.05;;;;;;;21.30;49.12;99534.81;5037712;28;20478;-76
2022/05/22 05:59:04;;;;;;;3.22;1.70;;;;;;;21.18;50.31;99542.09;5037477;28;20141;-76
2022/05/22 06:01:29;;;;;;;3.65;1.88;;;;;;;21.28;49.93;99552.69;5037633;28;20056;-76
2022/05/22 06:03:54;;;;;;;5.72;2.15;;;;;;;21.29;50.13;99553.50;5037917;28;20130;-76
2022/05/22 06:06:20;;;;;;;4.72;1.88;;;;;;;21.29;50.43;99550.88;5037564;28;20032;-76
2022/05/22 06:08:46;;;;;;;4.88;2.08;;;;;;;21.38;50.22;99550.03;5037727;28;20122;-76
2022/05/22 06:11:11;;;;;;;5.32;2.25;;;;;;;21.50;48.77;99542.75;5035449;28;20026;-76
2022/05/22 06:13:37;;;;;;;4.85;1.95;;;;;;;21.90;48.77;99550.41;5034259;28;20029;-76
2022/05/22 06:16:04;;;;;;;6.22;2.60;;;;;;;21.83;48.73;99546.69;5034211;28;20048;-76
2022/05/22 06:18:30;;;;;;;5.88;2.35;;;;;;;21.67;48.74;99558.75;5034768;28;20021;-76
2022/05/22 06:20:55;;;;;;;4.60;2.17;;;;;;;21.80;49.04;99552.28;5034498;28;20032;-76
2022/05/22 06:23:20;;;;;;;8.00;2.25;;;;;;;21.52;49.17;99549.56;5034373;28;20037;-76
2022/05/22 06:25:46;;;;;;;3.28;1.73;;;;;;;21.64;49.42;99561.66;5034455;28;20027;-76
2022/05/22 06:28:13;;;;;;;4.15;2.20;;;;;;;22.09;47.97;99547.69;5034122;28;20044;-76
2022/05/22 06:30:38;;;;;;;6.35;1.85;;;;;;;22.61;48.21;99560.38;5034217;28;20026;-76
2022/05/22 06:33:08;;;;;;;4.70;1.80;;;;;;;23.34;46.12;99552.22;5034070;28;20034;-76
2022/05/22 06:35:34;;;;;;;3.35;1.67;;;;;;;24.43;44.57;99564.94;5034121;28;20029;-76
2022/05/22 06:37:59;;;;;;;3.08;1.67;;;;;;;24.78;40.74;99561.19;5034061;28;20510;-76
2022/05/22 06:40:24;;;;;;;3.63;1.63;;;;;;;25.94;39.13;99553.75;5033879;28;20045;-78
2022/05/22 06:42:50;;;;;;;2.42;1.45;;;;;;;25.46;38.84;99558.19;5034128;28;20116;-77
2022/05/22 06:45:24;;;;;;;2.08;1.40;;;;;;;26.45;36.51;99562.22;5033604;28;20053;-77
2022/05/22 06:47:51;;;;;;;4.90;1.40;;;;;;;28.42;33.50;99551.31;5034159;28;20021;-77
2022/05/22 06:50:18;;;;;;;2.47;1.50;;;;;;;29.42;31.28;99563.00;5034164;28;20098;-77
2022/05/22 06:52:45;;;;;;;3.22;1.50;;;;;;;29.12;31.65;99556.97;5034053;28;20060;-77
2022/05/22 06:55:12;;;;;;;2.90;1.65;;;;;;;28.84;31.39;99558.56;5033622;28;20424;-78
2022/05/22 06:57:38;;;;;;;2.72;1.58;;;;;;;30.06;31.07;99557.41;5033732;28;20068;-77
2022/05/22 07:00:06;;;;;;;2.05;1.23;;;;;;;29.49;29.85;99553.94;5033477;28;20026;-78
2022/05/22 07:02:35;;;;;;;2.58;1.35;;;;;;;29.16;30.62;99550.19;5033778;28;20501;-78
2022/05/22 07:05:00;;;;;;;4.13;1.42;;;;;;;27.73;32.81;99548.16;5033821;28;20040;-78
2022/05/22 07:07:26;;;;;;;2.67;1.52;;;;;;;26.22;35.32;99547.97;5033419;28;20366;-78
2022/05/22 07:09:52;;;;;;;2.72;1.20;;;;;;;24.82;37.01;99549.22;5033553;28;20150;-78
2022/05/22 07:12:18;;;;;;;3.03;1.50;;;;;;;23.57;39.61;99565.84;5033150;28;20052;-78
2022/05/22 07:14:45;;;;;;;3.70;1.35;;;;;;;22.65;40.94;99562.56;5033563;28;20028;-78
2022/05/22 07:17:12;;;;;;;2.85;1.20;;;;;;;21.95;42.64;99560.56;5033350;28;20017;-78
2022/05/22 07:19:38;;;;;;;4.28;2.03;;;;;;;21.31;44.30;99567.44;5033416;28;20052;-78
2022/05/22 07:22:07;;;;;;;1.95;1.40;;;;;;;20.77;45.92;99566.22;5033254;28;20467;-77
2022/05/22 07:24:34;;;;;;;4.15;1.58;;;;;;;20.36;47.31;99562.81;5033027;28;20037;-78
2022/05/22 07:26:59;;;;;;;3.03;1.55;;;;;;;19.89;47.85;99559.88;5032887;28;20022;-78
2022/05/22 07:29:24;;;;;;;4.07;1.42;;;;;;;19.66;50.29;99548.63;5033201;28;20030;-78
2022/05/22 07:31:50;;;;;;;3.20;1.38;;;;;;;19.62;49.94;99552.50;5033363;28;20115;-77
2022/05/22 07:34:15;;;;;;;3.47;1.60;;;;;;;19.65;50.11;99549.59;5032996;28;20035;-78
2022/05/22 07:36:41;;;;;;;2.20;1.40;;;;;;;19.55;50.37;99552.19;5033174;28;20497;-78
2022/05/22 07:39:07;;;;;;;1.88;1.38;;;;;;;19.35;50.97;99555.66;5032761;28;20057;-77
2022/05/22 07:41:33;;;;;;;2.13;1.27;;;;;;;19.09;51.48;99545.50;5032802;28;20504;-77
2022/05/22 07:43:59;;;;;;;3.13;1.30;;;;;;;18.96;52.41;99544.81;5033138;28;20033;-78
2022/05/22 07:46:25;;;;;;;3.80;1.40;;;;;;;18.86;52.76;99555.31;5032670;28;20092;-77
2022/05/22 07:48:51;;;;;;;3.15;1.40;;;;;;;18.91;53.22;99539.94;5032811;28;20083;-78
2022/05/22 07:51:17;;;;;;;3.60;1.55;;;;;;;19.27;51.86;99534.34;5032537;28;20091;-77
2022/05/22 07:53:43;;;;;;;3.47;1.35;;;;;;;19.30;52.17;99536.72;5032640;28;20414;-78
2022/05/22 07:56:08;;;;;;;2.85;1.63;;;;;;;19.16;52.78;99525.53;5030872;28;20029;-78
2022/05/22 07:58:34;;;;;;;2.70;1.40;;;;;;;19.39;52.00;99525.41;5032364;28;20049;-77
2022/05/22 08:01:01;;;;;;;3.17;1.35;;;;;;;19.66;51.01;99514.28;5032445;28;20033;-78
2022/05/22 08:03:27;;;;;;;2.38;1.33;;;;;;;20.03;51.17;99524.31;5032097;28;20037;-78
2022/05/22 08:05:54;;;;;;;2.70;1.40;;;;;;;20.22;50.59;99515.56;5031948;28;20037;-77
2022/05/22 08:08:20;;;;;;;3.47;1.70;;;;;;;20.17;50.86;99521.25;5031933;28;20090;-78
2022/05/22 08:10:46;;;;;;;2.92;1.58;;;;;;;20.18;51.64;99515.00;5031901;28;20140;-77
2022/05/22 08:13:12;;;;;;;2.50;1.40;;;;;;;20.36;51.39;99515.19;5032239;28;20092;-78
2022/05/22 08:15:40;;;;;;;3.28;1.85;;;;;;;20.68;50.38;99515.78;5032416;28;20387;-77
2022/05/22 08:18:07;;;;;;;1.67;1.40;;;;;;;20.87;49.07;99501.72;5031763;28;20025;-78
2022/05/22 08:20:34;;;;;;;2.10;1.20;;;;;;;21.03;48.67;99508.25;5031734;28;20053;-76
2022/05/22 08:23:03;;;;;;;3.80;1.67;;;;;;;21.27;48.16;99508.59;5031622;28;20029;-77
2022/05/22 08:25:30;;;;;;;3.75;1.40;;;;;;;21.20;47.71;99504.88;5031455;28;20033;-77
2022/05/22 08:27:56;;;;;;;2.38;1.13;;;;;;;20.86;47.62;99508.00;5031863;28;20049;-77
2022/05/22 08:30:23;;;;;;;5.20;1.40;;;;;;;20.50;48.42;99516.63;5031824;28;20501;-77
2022/05/22 08:32:50;;;;;;;1.80;1.10;;;;;;;20.17;49.94;99503.59;5031335;28;20583;-77
2022/05/22 08:35:21;;;;;;;3.33;1.60;;;;;;;19.81;50.26;99499.75;5030860;28;20025;-77
2022/05/22 08:37:46;;;;;;;3.05;1.33;;;;;;;19.77;50.99;99501.00;5031954;28;20107;-77
2022/05/22 08:40:18;;;;;;;1.95;1.50;;;;;;;19.69;50.85;99506.94;5031632;28;20493;-77
2022/05/22 08:42:46;;;;;;;1.38;1.10;;;;;;;19.50;51.47;99506.81;5031491;28;20382;-77
2022/05/22 08:45:19;;;;;;;3.47;1.20;;;;;;;19.15;51.75;99508.00;5028364;28;20132;-77
2022/05/22 08:47:56;;;;;;;2.15;1.20;;;;;;;19.05;52.43;99516.84;5031234;28;20029;-77
2022/05/22 08:50:23;;;;;;;2.03;1.17;;;;;;;18.85;53.31;99505.31;5029338;28;20072;-77
2022/05/22 08:53:01;;;;;;;1.70;1.20;;;;;;;18.78;53.25;99506.78;5031774;28;20029;-76
2022/05/22 08:58:57;;;;;;;2.75;1.23;;;;;;;18.22;54.35;99505.16;5031796;28;20041;-77
2022/05/22 09:01:48;;;;;;;2.42;1.33;;;;;;;18.13;55.73;99524.34;4932008;29;20044;-77
2022/05/22 09:04:16;;;;;;;;;;;;;;;18.12;55.58;99517.41;4875626;29;20056;-76
2022/05/22 09:06:59;;;;;;;3.05;1.33;;;;;;;18.06;55.55;99513.44;4875697;29;19990;-77
2022/05/22 09:09:28;;;;;;;3.33;1.45;;;;;;;18.17;54.82;99502.06;4875746;29;20151;-77
2022/05/22 09:12:16;;;;;;;3.50;1.40;;;;;;;18.40;54.07;99516.84;4875657;29;20041;-77
2022/05/22 09:14:48;;;;;;;1.30;1.13;;;;;;;18.38;53.66;99512.66;4875554;29;20044;-77
2022/05/22 09:17:25;;;;;;;1.20;1.10;;;;;;;18.30;54.56;99507.16;4875300;29;20475;-77
2022/05/22 09:20:02;;;;;;;2.28;1.40;;;;;;;18.36;55.71;99504.03;4875559;29;20375;-77
2022/05/22 09:22:56;;;;;;;2.38;1.55;;;;;;;18.60;54.87;99522.28;4874897;29;20452;-76
2022/05/22 09:25:45;;;;;;;3.00;1.35;;;;;;;18.45;55.59;99519.94;4875463;29;20053;-77
2022/05/22 09:28:30;;;;;;;2.67;1.73;;;;;;;18.27;55.01;99526.69;4875519;29;20442;-77
2022/05/22 09:31:33;;;;;;;3.08;1.35;;;;;;;18.14;54.84;99515.47;4875498;29;20037;-76
2022/05/22 09:34:23;;;;;;;2.60;1.55;;;;;;;18.01;55.73;99522.69;4874921;29;20057;-77
2022/05/22 09:36:51;;;;;;;2.75;1.65;;;;;;;17.91;55.34;99525.22;4857000;29;20037;-76
2022/05/22 09:40:01;;;;;;;3.78;1.70;;;;;;;17.86;55.80;99522.09;4951868;28;20134;-76
2022/05/22 09:42:36;;;;;;;2.05;1.58;;;;;;;17.85;56.66;99521.25;5029549;28;20449;-77
2022/05/22 09:45:01;;;;;;;2.88;1.95;;;;;;;17.99;56.94;99520.16;5031450;28;20050;-76
2022/05/22 09:47:32;;;;;;;3.30;1.83;;;;;;;18.29;56.89;99518.69;5034730;28;20078;-76
2022/05/22 09:50:24;;;;;;;3.70;1.60;;;;;;;18.51;56.81;99512.50;5033393;28;20033;-76
2022/05/22 09:53:02;;;;;;;3.88;1.88;;;;;;;18.79;55.63;99505.81;5030936;28;20470;-76
2022/05/22 09:55:36;;;;;;;3.75;1.75;;;;;;;19.07;53.94;99517.53;5033266;28;20101;-76
2022/05/22 09:58:21;;;;;;;5.25;1.95;;;;;;;19.31;53.35;99515.47;5033672;28;20033;-77
2022/05/22 10:01:13;;;;;;;2.33;1.52;;;;;;;19.47;52.67;99500.94;5033120;28;20032;-76
2022/05/22 10:03:58;;;;;;;1.77;1.20;;;;;;;19.68;52.60;99513.19;5032233;28;20029;-76
2022/05/22 10:06:37;;;;;;;4.85;1.90;;;;;;;19.57;52.41;99513.25;4951268;29;20163;-76
2022/05/22 10:09:17;;;;;;;3.30;1.63;;;;;;;19.42;52.05;99512.78;4951284;29;20039;-76
2022/05/22 10:12:01;;;;;;;2.40;1.25;;;;;;;19.16;52.70;99519.41;4953011;29;20051;-76
2022/05/22 10:14:50;;;;;;;2.75;1.60;;;;;;;18.89;52.76;99526.03;4953095;29;20027;-77
2022/05/22 10:17:22;;;;;;;1.75;1.23;;;;;;;18.73;53.64;99523.00;4951719;29;20583;-76
2022/05/22 10:20:12;;;;;;;1.98;1.33;;;;;;;18.56;54.30;99534.06;4953657;29;20043;-77
2022/05/22 10:23:03;;;;;;;3.90;1.80;;;;;;;18.43;54.93;99534.22;4953647;29;20078;-77
2022/05/22 10:25:47;;;;;;;3.38;1.80;;;;;;;18.36;55.08;99538.31;4953703;29;20042;-76
2022/05/22 10:28:26;;;;;;;2.85;1.73;;;;;;;18.44;55.09;99539.34;4953651;29;20031;-76
2022/05/22 10:31:00;;;;;;;2.72;1.70;;;;;;;18.36;55.78;99525.94;4953664;29;20050;-76
2022/05/22 10:33:40;;;;;;;6.32;1.92;;;;;;;18.28;56.28;99541.56;4953402;29;20564;-76
2022/05/22 10:36:13;;;;;;;3.07;1.87;;;;;;;18.12;56.41;99554.31;4953752;29;20055;-76
2022/05/22 10:38:48;;;;;;;3.97;1.92;;;;;;;17.96;56.87;99552.03;4953362;29;20042;-76
2022/05/22 10:44:30;;;;;;;2.55;1.55;;;;;;;18.08;56.73;99534.41;5006779;28;20088;-77
2022/05/22 10:47:02;;;;;;;3.00;1.58;;;;;;;18.29;56.85;99537.97;5014057;28;20486;-76
2022/05/22 10:49:45;;;;;;;2.05;1.65;;;;;;;18.45;56.26;99553.38;5014084;28;20458;-76
2022/05/22 10:52:13;;;;;;;3.15;2.00;;;;;;;18.43;55.59;99539.50;5014024;28;20034;-76
2022/05/22 10:54:50;;;;;;;4.13;2.00;;;;;;;18.42;55.86;99535.19;5013889;28;20026;-76
2022/05/22 10:57:25;;;;;;;3.05;1.77;;;;;;;18.44;54.68;99526.16;5013312;28;20022;-77
2022/05/22 10:59:51;;;;;;;3.05;1.90;;;;;;;18.58;54.80;99535.63;5013939;28;20483;-76
2022/05/22 11:02:23;;;;;;;3.47;2.20;;;;;;;18.55;54.98;99533.22;5013611;28;20072;-76
2022/05/22 11:04:50;;;;;;;2.83;1.58;;;;;;;18.54;55.31;99544.75;5013905;28;20034;-76
2022/05/22 11:07:43;;;;;;;2.67;1.55;;;;;;;18.49;55.39;99540.78;5013727;28;20080;-76
2022/05/22 11:10:33;;;;;;;3.72;1.50;;;;;;;18.52;55.01;99535.28;4914856;29;20068;-75
2022/05/22 11:13:11;;;;;;;3.47;1.67;;;;;;;18.53;55.25;99542.22;4920104;29;20032;-76
2022/05/22 11:15:39;;;;;;;4.18;2.17;;;;;;;18.57;55.77;99539.19;4932984;29;20545;-76
2022/05/22 11:18:18;;;;;;;2.30;1.63;;;;;;;18.70;55.41;99539.06;4933422;29;20042;-76
2022/05/22 11:20:56;;;;;;;3.95;1.50;;;;;;;18.96;55.26;99518.44;4933588;29;20600;-76
2022/05/22 11:24:03;;;;;;;2.75;1.80;;;;;;;19.33;54.88;99544.38;4933374;29;20123;-76
2022/05/22 11:26:44;;;;;;;3.05;1.33;;;;;;;19.42;53.24;99533.91;4933265;29;20054;-78
2022/05/22 11:29:28;;;;;;;2.28;1.50;;;;;;;19.46;51.82;99539.72;4933448;29;20040;-76
2022/05/22 11:32:08;;;;;;;1.67;1.50;;;;;;;19.42;51.60;99531.25;4933639;29;20058;-78
2022/05/22 11:35:03;;;;;;;1.70;1.52;;;;;;;19.42;51.97;99525.97;4933169;29;20115;-76
2022/05/22 11:37:53;;;;;;;3.60;1.90;;;;;;;19.37;52.92;99527.31;4933200;29;20532;-77
2022/05/22 11:40:42;;;;;;;2.58;1.58;;;;;;;19.43;52.74;99517.06;4933374;29;20123;-76
2022/05/22 11:43:27;;;;;;;2.90;1.70;;;;;;;19.40;52.78;99514.69;4933311;29;20032;-76
2022/05/22 11:46:03;;;;;;;2.20;1.52;;;;;;;19.49;52.64;99520.16;4933043;29;20639;-76
2022/05/22 11:48:58;;;;;;;3.75;1.50;;;;;;;19.58;52.20;99512.28;5032631;28;20103;-76
2022/05/22 11:51:49;;;;;;;5.30;1.70;;;;;;;19.59;52.29;99513.09;4932821;29;20549;-76
2022/05/22 11:54:14;;;;;;;3.80;1.70;;;;;;;19.60;53.07;99509.50;4932967;29;20070;-76
2022/05/22 11:56:42;;;;;;;5.55;2.05;;;;;;;19.66;51.77;99506.34;4932752;29;20083;-78